createdAt,value
2017-09-02T08:12:26.557Z,1019
2017-09-02T08:15:24.027Z,1018.9
2017-09-02T08:20:20.398Z,1018.9
2017-09-02T08:21:19.218Z,1018.9
2017-09-02T08:22:18.909Z,1018.9
2017-09-02T08:23:17.849Z,1018.9
2017-09-02T08:24:17.036Z,1018.9
2017-09-02T08:26:15.483Z,1018.9
2017-09-02T08:38:06.440Z,1018.8
2017-09-02T08:55:53.208Z,1018.8
2017-09-02T08:56:23.587Z,1018.8
2017-09-02T08:58:50.973Z,1018.8
2017-09-02T09:02:48.220Z,1018.8
2017-09-02T09:17:36.833Z,1018.8
2017-09-02T10:08:00.153Z,1018.7
2017-09-02T10:31:43.146Z,1018.5
2017-09-02T10:42:35.344Z,1018.4
2017-09-02T12:08:35.138Z,1018.4
2017-09-02T12:09:34.335Z,1018.4
2017-09-02T12:10:33.907Z,1018.3
2017-09-02T12:11:33.346Z,1018.4
2017-09-02T12:12:32.542Z,1018.3
2017-09-02T12:13:31.854Z,1018.3
2017-09-02T12:14:31.167Z,1018.3
2017-09-02T12:15:30.236Z,1018.4
2017-09-02T12:16:29.557Z,1018.3
2017-09-02T12:17:28.992Z,1018.3
2017-09-02T12:18:28.441Z,1018.3
2017-09-02T12:19:27.770Z,1018.3
2017-09-02T12:20:26.955Z,1018.2
2017-09-02T12:21:26.283Z,1018.2
2017-09-02T12:22:25.725Z,1018.3
2017-09-02T12:23:24.798Z,1018.3
2017-09-02T12:24:24.247Z,1018.3
2017-09-02T12:25:23.578Z,1018.2
2017-09-02T12:26:22.895Z,1018.2
2017-09-02T12:27:22.212Z,1018.2
2017-09-02T12:28:21.415Z,1018.2
2017-09-02T12:29:21.108Z,1018.2
2017-09-02T12:30:20.300Z,1018.1
2017-09-02T12:50:06.487Z,1018.4
2017-09-02T13:08:53.557Z,1018.2
2017-09-02T13:10:52.055Z,1018.2
2017-09-02T13:11:51.372Z,1018.2
2017-09-02T13:12:50.813Z,1018.2
2017-09-02T13:14:49.659Z,1018.1
2017-09-02T13:15:48.847Z,1018.2
2017-09-02T13:16:47.911Z,1018.1
2017-09-02T13:17:47.228Z,1018.1
2017-09-02T13:19:46.062Z,1018
2017-09-02T13:23:43.186Z,1018
2017-09-02T13:27:40.430Z,1018
2017-09-02T13:28:39.502Z,1018
2017-09-02T13:30:38.207Z,1018
2017-09-02T13:33:35.919Z,1018
2017-09-02T13:34:35.238Z,1017.9
2017-09-02T13:35:34.547Z,1017.9
2017-09-02T13:36:33.857Z,1017.9
2017-09-02T13:37:33.312Z,1017.9
2017-09-02T13:38:32.625Z,1017.9
2017-09-02T13:39:31.675Z,1017.9
2017-09-02T13:41:30.270Z,1017.9
2017-09-02T13:46:26.641Z,1017.9
2017-09-02T13:51:23.532Z,1017.8
2017-09-02T13:54:21.391Z,1017.8
2017-09-02T13:58:18.125Z,1017.9
2017-09-02T14:11:09.109Z,1017.8
2017-09-02T14:12:08.291Z,1017.8
2017-09-02T14:15:06.272Z,1017.8
2017-09-02T14:16:05.346Z,1017.7
2017-09-02T14:19:03.442Z,1017.7
2017-09-02T14:20:02.758Z,1017.7
2017-09-02T14:23:00.225Z,1017.7
2017-09-02T14:23:59.663Z,1017.7
2017-09-02T14:24:59.221Z,1017.7
2017-09-02T14:25:58.408Z,1017.8
2017-09-02T14:26:57.470Z,1017.8
2017-09-02T14:27:57.056Z,1017.7
2017-09-02T14:28:56.004Z,1017.8
2017-09-02T14:29:55.196Z,1017.7
2017-09-02T14:30:54.642Z,1017.8
2017-09-02T14:31:53.824Z,1017.8
2017-09-02T14:34:51.662Z,1017.8
2017-09-02T14:35:50.986Z,1017.8
2017-09-02T14:36:50.174Z,1017.9
2017-09-02T14:37:49.491Z,1017.9
2017-09-02T14:38:49.057Z,1017.9
2017-09-02T14:39:48.378Z,1017.9
2017-09-02T14:40:47.308Z,1017.8
2017-09-02T14:41:46.995Z,1017.9
2017-09-02T14:42:46.310Z,1017.9
2017-09-02T14:43:45.497Z,1017.9
2017-09-02T14:45:43.828Z,1017.9
2017-09-02T14:46:43.140Z,1017.9
2017-09-02T14:47:42.457Z,1017.9
2017-09-02T14:48:42.035Z,1017.9
2017-09-02T14:49:41.222Z,1017.9
2017-09-02T14:50:40.538Z,1017.9
2017-09-02T14:51:39.480Z,1017.9
2017-09-02T14:52:39.181Z,1017.9
2017-09-02T14:54:37.776Z,1017.9
2017-09-02T14:55:36.716Z,1017.9
2017-09-02T14:57:35.554Z,1017.9
2017-09-02T14:58:35.005Z,1017.9
2017-09-02T14:59:33.820Z,1017.9
2017-09-02T15:00:33.528Z,1017.9
2017-09-02T15:01:32.472Z,1017.9
2017-09-02T15:02:31.919Z,1017.9
2017-09-02T15:03:31.383Z,1017.8
2017-09-02T15:04:30.711Z,1017.9
2017-09-02T15:05:29.658Z,1017.9
2017-09-02T15:06:28.970Z,1017.9
2017-09-02T15:07:28.294Z,1017.9
2017-09-02T15:08:27.582Z,1017.9
2017-09-02T15:10:26.420Z,1017.8
2017-09-02T15:12:24.631Z,1017.8
2017-09-02T15:12:54.871Z,1017.8
2017-09-02T15:13:25.386Z,1017.8
2017-09-02T15:14:23.315Z,1017.8
2017-09-02T15:17:21.168Z,1017.7
2017-09-02T15:18:20.608Z,1017.7
2017-09-02T15:19:20.049Z,1017.7
2017-09-02T15:20:19.237Z,1017.7
2017-09-02T15:22:17.688Z,1017.7
2017-09-02T15:22:47.937Z,1017.7
2017-09-02T15:24:16.319Z,1017.7
2017-09-02T15:24:46.569Z,1017.7
2017-09-02T15:25:17.209Z,1017.7
2017-09-02T15:25:47.456Z,1017.7
2017-09-02T15:31:11.625Z,1017.6
2017-09-02T15:32:10.810Z,1017.6
2017-09-02T15:33:10.268Z,1017.6
2017-09-02T15:40:05.295Z,1017.6
2017-09-02T15:41:04.366Z,1017.6
2017-09-02T15:44:02.335Z,1017.6
2017-09-02T15:45:01.649Z,1017.7
2017-09-02T15:47:00.019Z,1017.7
2017-09-02T15:48:58.596Z,1017.7
2017-09-02T15:49:58.295Z,1017.7
2017-09-02T15:50:57.483Z,1017.7
2017-09-02T15:51:56.555Z,1017.6
2017-09-02T15:52:56.123Z,1017.6
2017-09-02T15:53:55.437Z,1017.6
2017-09-02T15:54:54.754Z,1017.6
2017-09-02T15:55:53.704Z,1017.6
2017-09-02T15:56:53.017Z,1017.6
2017-09-02T15:57:52.600Z,1017.6
2017-09-02T15:58:51.915Z,1017.6
2017-09-02T16:00:50.617Z,1017.6
2017-09-02T16:02:49.344Z,1017.6
2017-09-02T16:03:48.534Z,1017.7
2017-09-02T16:06:46.260Z,1017.6
2017-09-02T16:07:45.851Z,1017.6
2017-09-02T16:08:45.159Z,1017.5
2017-09-02T16:09:44.096Z,1017.5
2017-09-02T16:10:43.787Z,1017.6
2017-09-02T16:11:42.726Z,1017.5
2017-09-02T16:12:42.433Z,1017.5
2017-09-02T16:13:41.748Z,1017.5
2017-09-02T16:14:40.815Z,1017.5
2017-09-02T16:15:40.381Z,1017.5
2017-09-02T16:16:39.708Z,1017.5
2017-09-02T16:17:38.534Z,1017.5
2017-09-02T16:18:37.993Z,1017.5
2017-09-02T16:19:37.450Z,1017.5
2017-09-02T16:21:35.796Z,1017.5
2017-09-02T16:23:34.879Z,1017.5
2017-09-02T16:24:33.823Z,1017.5
2017-09-02T16:25:33.524Z,1017.5
2017-09-02T16:26:32.449Z,1017.5
2017-09-02T16:27:31.770Z,1017.5
2017-09-02T16:28:31.102Z,1017.5
2017-09-02T16:29:30.797Z,1017.5
2017-09-02T16:30:29.980Z,1017.5
2017-09-02T16:31:29.047Z,1017.6
2017-09-02T16:32:28.367Z,1017.5
2017-09-02T16:33:27.927Z,1017.6
2017-09-02T16:34:27.379Z,1017.5
2017-09-02T16:35:26.570Z,1017.5
2017-09-02T16:37:25.033Z,1017.6
2017-09-02T16:38:24.374Z,1017.6
2017-09-02T16:39:23.819Z,1017.5
2017-09-02T16:40:23.010Z,1017.6
2017-09-02T16:41:22.230Z,1017.6
2017-09-02T16:42:21.808Z,1017.6
2017-09-02T16:43:20.999Z,1017.6
2017-09-02T16:44:20.198Z,1017.6
2017-09-02T16:45:19.651Z,1017.6
2017-09-02T16:46:18.715Z,1017.6
2017-09-02T16:47:18.421Z,1017.6
2017-09-02T16:48:17.733Z,1017.7
2017-09-02T16:49:16.670Z,1017.7
2017-09-02T16:50:16.111Z,1017.7
2017-09-02T16:51:15.547Z,1017.7
2017-09-02T16:52:14.666Z,1017.7
2017-09-02T16:53:13.863Z,1017.7
2017-09-02T16:54:13.182Z,1017.7
2017-09-02T16:55:12.498Z,1017.7
2017-09-02T16:56:11.953Z,1017.7
2017-09-02T16:57:11.147Z,1017.7
2017-09-02T16:58:10.736Z,1017.7
2017-09-02T16:59:10.049Z,1017.8
2017-09-02T17:00:09.378Z,1017.8
2017-09-02T17:01:08.318Z,1017.8
2017-09-02T17:02:07.880Z,1017.7
2017-09-02T17:03:07.210Z,1017.8
2017-09-02T17:04:06.154Z,1017.7
2017-09-02T17:05:05.847Z,1017.7
2017-09-02T17:06:04.785Z,1017.8
2017-09-02T17:07:04.229Z,1017.7
2017-09-02T17:08:03.428Z,1017.8
2017-09-02T17:09:02.995Z,1017.8
2017-09-02T17:10:02.453Z,1017.7
2017-09-02T17:11:01.268Z,1017.8
2017-09-02T17:12:00.580Z,1017.8
2017-09-02T17:13:00.276Z,1017.7
2017-09-02T17:13:59.584Z,1017.7
2017-09-02T17:14:58.763Z,1017.8
2017-09-02T17:15:58.069Z,1017.7
2017-09-02T17:16:57.390Z,1017.8
2017-09-02T17:17:56.595Z,1017.8
2017-09-02T17:18:56.042Z,1017.8
2017-09-02T17:19:54.996Z,1017.8
2017-09-02T17:20:54.697Z,1017.8
2017-09-02T17:22:53.266Z,1017.8
2017-09-02T17:23:52.219Z,1017.8
2017-09-02T17:25:51.045Z,1017.7
2017-09-02T17:26:50.095Z,1017.8
2017-09-02T17:27:49.548Z,1017.7
2017-09-02T17:28:48.662Z,1017.7
2017-09-02T17:29:48.366Z,1017.7
2017-09-02T17:30:47.431Z,1017.7
2017-09-02T17:31:46.888Z,1017.7
2017-09-02T17:32:46.199Z,1017.7
2017-09-02T17:33:45.145Z,1017.8
2017-09-02T17:34:44.852Z,1017.8
2017-09-02T17:36:43.063Z,1017.8
2017-09-02T17:37:42.520Z,1017.8
2017-09-02T17:38:41.616Z,1017.8
2017-09-02T17:39:41.187Z,1017.9
2017-09-02T17:40:40.264Z,1017.8
2017-09-02T17:41:39.827Z,1017.9
2017-09-02T17:42:38.894Z,1017.9
2017-09-02T17:43:38.079Z,1017.9
2017-09-02T17:44:37.382Z,1017.9
2017-09-02T17:45:36.837Z,1018
2017-09-02T17:47:35.677Z,1018
2017-09-02T17:48:34.873Z,1018
2017-09-02T17:49:33.826Z,1018
2017-09-02T17:50:33.155Z,1018
2017-09-02T17:51:32.599Z,1018
2017-09-02T17:52:32.027Z,1018
2017-09-02T17:53:31.341Z,1018.1
2017-09-02T17:54:01.593Z,1018.1
2017-09-02T17:54:31.968Z,1018.1
2017-09-02T17:55:02.601Z,1018.1
2017-09-02T17:56:28.844Z,1018.1
2017-09-02T17:57:28.278Z,1018.1
2017-09-02T17:58:27.718Z,1018.1
2017-09-02T17:59:27.038Z,1018.1
2017-09-02T18:00:26.238Z,1018.1
2017-09-02T18:01:25.675Z,1018.1
2017-09-02T18:02:24.743Z,1018.1
2017-09-02T18:03:24.060Z,1018.1
2017-09-02T18:05:22.645Z,1018.1
2017-09-02T18:07:20.977Z,1018.1
2017-09-02T18:08:20.301Z,1018.2
2017-09-02T18:09:19.997Z,1018.2
2017-09-02T18:10:18.816Z,1018.2
2017-09-02T18:11:18.128Z,1018.3
2017-09-02T18:12:17.461Z,1018.3
2017-09-02T18:13:16.779Z,1018.2
2017-09-02T18:14:16.093Z,1018.2
2017-09-02T18:15:15.410Z,1018.2
2017-09-02T18:17:14.126Z,1018.3
2017-09-02T18:18:13.444Z,1018.2
2017-09-02T18:19:12.514Z,1018.3
2017-09-02T18:20:11.830Z,1018.3
2017-09-02T18:21:11.284Z,1018.3
2017-09-02T18:22:10.230Z,1018.3
2017-09-02T18:23:09.556Z,1018.4
2017-09-02T18:24:09.011Z,1018.3
2017-09-02T18:25:07.989Z,1018.3
2017-09-02T18:26:07.310Z,1018.3
2017-09-02T18:27:06.587Z,1018.3
2017-09-02T18:28:06.154Z,1018.3
2017-09-02T18:29:05.585Z,1018.4
2017-09-02T18:30:04.779Z,1018.4
2017-09-02T18:31:03.720Z,1018.3
2017-09-02T18:32:03.046Z,1018.3
2017-09-02T18:33:02.247Z,1018.4
2017-09-02T18:35:01.139Z,1018.4
2017-09-02T18:36:00.230Z,1018.4
2017-09-02T18:36:59.293Z,1018.4
2017-09-02T18:38:57.865Z,1018.4
2017-09-02T18:40:56.689Z,1018.4
2017-09-02T18:41:56.129Z,1018.4
2017-09-02T18:42:55.201Z,1018.4
2017-09-02T18:43:54.318Z,1018.4
2017-09-02T18:44:53.504Z,1018.4
2017-09-02T18:45:53.197Z,1018.3
2017-09-02T18:46:52.406Z,1018.3
2017-09-02T18:47:51.360Z,1018.3
2017-09-02T18:48:50.687Z,1018.3
2017-09-02T18:49:50.252Z,1018.3
2017-09-02T18:50:49.338Z,1018.3
2017-09-02T18:51:48.667Z,1018.3
2017-09-02T18:52:48.024Z,1018.3
2017-09-02T18:55:45.879Z,1018.3
2017-09-02T18:56:45.074Z,1018.3
2017-09-02T18:57:44.270Z,1018.4
2017-09-02T18:58:43.458Z,1018.3
2017-09-02T18:59:42.648Z,1018.4
2017-09-02T19:00:42.231Z,1018.4
2017-09-02T19:01:41.179Z,1018.3
2017-09-02T19:02:40.484Z,1018.4
2017-09-02T19:05:38.212Z,1018.4
2017-09-02T19:06:37.556Z,1018.4
2017-09-02T19:07:37.045Z,1018.3
2017-09-02T19:08:36.155Z,1018.3
2017-09-02T19:10:34.857Z,1018.3
2017-09-02T19:12:33.057Z,1018.3
2017-09-02T19:13:32.371Z,1018.3
2017-09-02T19:15:31.075Z,1018.3
2017-09-02T19:16:30.156Z,1018.2
2017-09-02T19:17:29.641Z,1018.2
2017-09-02T19:18:28.837Z,1018.2
2017-09-02T19:19:28.026Z,1018.2
2017-09-02T19:20:27.514Z,1018.2
2017-09-02T19:21:26.609Z,1018.3
2017-09-02T19:22:25.817Z,1018.3
2017-09-02T19:23:25.123Z,1018.3
2017-09-02T19:25:23.584Z,1018.3
2017-09-02T19:26:22.888Z,1018.3
2017-09-02T19:27:22.203Z,1018.3
2017-09-02T19:28:21.512Z,1018.3
2017-09-02T19:29:20.577Z,1018.3
2017-09-02T19:30:19.893Z,1018.3
2017-09-02T19:31:19.343Z,1018.3
2017-09-02T19:32:18.281Z,1018.3
2017-09-02T19:33:17.709Z,1018.3
2017-09-02T19:35:16.164Z,1018.3
2017-09-02T19:36:15.489Z,1018.2
2017-09-02T19:37:14.679Z,1018.2
2017-09-02T19:38:14.130Z,1018.2
2017-09-02T19:39:13.184Z,1018.3
2017-09-02T19:40:12.524Z,1018.2
2017-09-02T19:41:11.720Z,1018.2
2017-09-02T19:42:11.274Z,1018.2
2017-09-02T19:43:10.094Z,1018.2
2017-09-02T19:44:09.803Z,1018.2
2017-09-02T19:45:08.615Z,1018.2
2017-09-02T19:46:08.223Z,1018.2
2017-09-02T19:47:07.163Z,1018.2
2017-09-02T19:48:06.494Z,1018.2
2017-09-02T19:49:05.680Z,1018.2
2017-09-02T19:50:05.130Z,1018.3
2017-09-02T19:51:04.202Z,1018.3
2017-09-02T19:52:03.530Z,1018.3
2017-09-02T19:53:03.011Z,1018.4
2017-09-02T19:54:02.087Z,1018.4
2017-09-02T19:55:01.418Z,1018.4
2017-09-02T19:56:00.880Z,1018.3
2017-09-02T19:56:59.708Z,1018.4
2017-09-02T19:57:59.016Z,1018.3
2017-09-02T20:00:57.109Z,1018.3
2017-09-02T20:01:55.924Z,1018.4
2017-09-02T20:02:55.230Z,1018.4
2017-09-02T20:03:54.802Z,1018.4
2017-09-02T20:04:53.741Z,1018.4
2017-09-02T20:06:52.331Z,1018.5
2017-09-02T20:07:51.658Z,1018.5
2017-09-02T20:08:50.753Z,1018.5
2017-09-02T20:09:49.944Z,1018.5
2017-09-02T20:10:49.519Z,1018.5
2017-09-02T20:11:48.719Z,1018.5
2017-09-02T20:13:46.923Z,1018.5
2017-09-02T20:14:46.618Z,1018.5
2017-09-02T20:15:45.575Z,1018.5
2017-09-02T20:16:45.016Z,1018.5
2017-09-02T20:17:43.951Z,1018.5
2017-09-02T20:18:43.269Z,1018.5
2017-09-02T20:19:42.451Z,1018.6
2017-09-02T20:20:42.033Z,1018.5
2017-09-02T20:21:40.997Z,1018.5
2017-09-02T20:22:40.480Z,1018.5
2017-09-02T20:24:38.685Z,1018.4
2017-09-02T20:25:37.885Z,1018.5
2017-09-02T20:26:37.193Z,1018.4
2017-09-02T20:27:36.506Z,1018.4
2017-09-02T20:28:35.697Z,1018.4
2017-09-02T20:29:35.002Z,1018.4
2017-09-02T20:30:34.569Z,1018.4
2017-09-02T20:31:33.368Z,1018.4
2017-09-02T20:34:31.337Z,1018.4
2017-09-02T20:35:30.530Z,1018.4
2017-09-02T20:36:29.753Z,1018.5
2017-09-02T20:37:29.083Z,1018.5
2017-09-02T20:38:28.407Z,1018.5
2017-09-02T20:39:27.603Z,1018.5
2017-09-02T20:40:26.671Z,1018.5
2017-09-02T20:41:26.000Z,1018.5
2017-09-02T20:42:25.213Z,1018.5
2017-09-02T20:44:23.807Z,1018.5
2017-09-02T20:45:23.120Z,1018.5
2017-09-02T20:46:22.187Z,1018.5
2017-09-02T20:47:21.759Z,1018.5
2017-09-02T20:48:20.726Z,1018.5
2017-09-02T20:49:20.195Z,1018.5
2017-09-02T20:49:50.462Z,1018.5
2017-09-02T20:51:18.324Z,1018.5
2017-09-02T20:52:17.645Z,1018.5
2017-09-02T20:54:16.465Z,1018.5
2017-09-02T20:55:15.279Z,1018.5
2017-09-02T20:56:14.724Z,1018.5
2017-09-02T20:57:14.042Z,1018.5
2017-09-02T20:58:12.982Z,1018.5
2017-09-02T20:59:12.694Z,1018.5
2017-09-02T21:00:11.873Z,1018.5
2017-09-02T21:01:10.815Z,1018.6
2017-09-02T21:02:10.010Z,1018.6
2017-09-02T21:04:08.885Z,1018.6
2017-09-02T21:06:06.958Z,1018.6
2017-09-02T21:07:06.270Z,1018.6
2017-09-02T21:08:05.840Z,1018.6
2017-09-02T21:09:04.645Z,1018.6
2017-09-02T21:10:04.249Z,1018.6
2017-09-02T21:11:03.577Z,1018.6
2017-09-02T21:12:02.377Z,1018.6
2017-09-02T21:13:01.833Z,1018.6
2017-09-02T21:14:00.917Z,1018.6
2017-09-02T21:15:00.262Z,1018.6
2017-09-02T21:15:59.712Z,1018.7
2017-09-02T21:16:58.817Z,1018.7
2017-09-02T21:17:57.884Z,1018.7
2017-09-02T21:18:57.204Z,1018.8
2017-09-02T21:19:56.388Z,1018.8
2017-09-02T21:20:55.856Z,1018.8
2017-09-02T21:21:54.807Z,1018.7
2017-09-02T21:22:54.135Z,1018.7
2017-09-02T21:23:53.452Z,1018.7
2017-09-02T21:24:52.772Z,1018.7
2017-09-02T21:26:51.464Z,1018.8
2017-09-02T21:27:50.649Z,1018.7
2017-09-02T21:28:49.585Z,1018.7
2017-09-02T21:29:49.020Z,1018.7
2017-09-02T21:30:48.367Z,1018.7
2017-09-02T21:31:47.306Z,1018.8
2017-09-02T21:33:46.127Z,1018.8
2017-09-02T21:34:45.065Z,1018.7
2017-09-02T21:35:44.383Z,1018.7
2017-09-02T21:36:43.449Z,1018.7
2017-09-02T21:37:42.885Z,1018.7
2017-09-02T21:38:42.206Z,1018.7
2017-09-02T21:39:41.142Z,1018.6
2017-09-02T21:40:40.580Z,1018.7
2017-09-02T21:41:39.655Z,1018.6
2017-09-02T21:42:38.979Z,1018.6
2017-09-02T21:43:09.603Z,1018.6
2017-09-02T21:44:37.737Z,1018.7
2017-09-02T21:45:37.053Z,1018.6
2017-09-02T21:46:35.871Z,1018.6
2017-09-02T21:47:35.199Z,1018.6
2017-09-02T21:48:34.656Z,1018.7
2017-09-02T21:49:33.578Z,1018.7
2017-09-02T21:50:33.025Z,1018.7
2017-09-02T21:51:32.227Z,1018.7
2017-09-02T21:52:31.414Z,1018.7
2017-09-02T21:53:30.610Z,1018.6
2017-09-02T21:54:30.059Z,1018.6
2017-09-02T21:55:29.005Z,1018.6
2017-09-02T21:56:28.446Z,1018.6
2017-09-02T21:57:27.638Z,1018.6
2017-09-02T21:58:26.708Z,1018.7
2017-09-02T21:59:26.026Z,1018.7
2017-09-02T22:00:25.354Z,1018.6
2017-09-02T22:01:24.549Z,1018.6
2017-09-02T22:02:23.997Z,1018.6
2017-09-02T22:03:23.328Z,1018.6
2017-09-02T22:04:22.277Z,1018.6
2017-09-02T22:05:21.339Z,1018.6
2017-09-02T22:06:20.655Z,1018.6
2017-09-02T22:07:20.226Z,1018.5
2017-09-02T22:08:19.044Z,1018.5
2017-09-02T22:09:18.354Z,1018.5
2017-09-02T22:10:17.663Z,1018.5
2017-09-02T22:11:16.967Z,1018.5
2017-09-02T22:12:16.158Z,1018.5
2017-09-02T22:13:15.345Z,1018.5
2017-09-02T22:14:14.663Z,1018.5
2017-09-02T22:15:13.978Z,1018.4
2017-09-02T22:16:13.164Z,1018.5
2017-09-02T22:17:12.479Z,1018.5
2017-09-02T22:18:11.801Z,1018.5
2017-09-02T22:19:10.745Z,1018.5
2017-09-02T22:20:09.811Z,1018.4
2017-09-02T22:21:09.373Z,1018.4
2017-09-02T22:22:08.448Z,1018.4
2017-09-02T22:23:07.771Z,1018.5
2017-09-02T22:24:06.705Z,1018.5
2017-09-02T22:25:06.280Z,1018.5
2017-09-02T22:26:05.349Z,1018.4
2017-09-02T22:27:04.778Z,1018.5
2017-09-02T22:28:03.959Z,1018.4
2017-09-02T22:29:03.046Z,1018.5
2017-09-02T22:30:02.240Z,1018.5
2017-09-02T22:32:00.590Z,1018.5
2017-09-02T22:33:00.044Z,1018.5
2017-09-02T22:33:59.247Z,1018.5
2017-09-02T22:34:58.448Z,1018.5
2017-09-02T22:35:57.649Z,1018.5
2017-09-02T22:36:56.968Z,1018.4
2017-09-02T22:37:56.286Z,1018.5
2017-09-02T22:38:55.364Z,1018.4
2017-09-02T22:39:54.552Z,1018.4
2017-09-02T22:40:53.868Z,1018.4
2017-09-02T22:41:52.812Z,1018.4
2017-09-02T22:42:52.267Z,1018.4
2017-09-02T22:43:51.208Z,1018.4
2017-09-02T22:44:50.661Z,1018.4
2017-09-02T22:45:50.102Z,1018.4
2017-09-02T22:46:49.169Z,1018.4
2017-09-02T22:47:48.099Z,1018.4
2017-09-02T22:48:47.525Z,1018.4
2017-09-02T22:49:46.852Z,1018.4
2017-09-02T22:50:45.918Z,1018.5
2017-09-02T22:51:45.234Z,1018.5
2017-09-02T22:52:44.434Z,1018.4
2017-09-02T22:53:43.880Z,1018.4
2017-09-02T22:54:42.949Z,1018.4
2017-09-02T22:55:42.129Z,1018.4
2017-09-02T22:56:41.440Z,1018.4
2017-09-02T22:57:40.382Z,1018.4
2017-09-02T22:58:39.833Z,1018.4
2017-09-02T22:59:38.896Z,1018.4
2017-09-02T23:00:38.210Z,1018.4
2017-09-02T23:01:37.522Z,1018.4
2017-09-02T23:02:36.607Z,1018.4
2017-09-02T23:03:35.665Z,1018.4
2017-09-02T23:04:34.855Z,1018.4
2017-09-02T23:05:34.289Z,1018.4
2017-09-02T23:06:33.604Z,1018.3
2017-09-02T23:07:03.850Z,1018.3
2017-09-02T23:07:34.356Z,1018.3
2017-09-02T23:08:04.736Z,1018.3
2017-09-02T23:08:35.112Z,1018.3
2017-09-02T23:09:05.752Z,1018.3
2017-09-02T23:12:28.649Z,1018.4
2017-09-02T23:13:28.218Z,1018.3
2017-09-02T23:14:27.421Z,1018.4
2017-09-02T23:15:26.609Z,1018.4
2017-09-02T23:16:25.540Z,1018.4
2017-09-02T23:17:24.734Z,1018.3
2017-09-02T23:18:24.300Z,1018.4
2017-09-02T23:19:23.515Z,1018.3
2017-09-02T23:20:22.340Z,1018.3
2017-09-02T23:21:21.790Z,1018.3
2017-09-02T23:22:21.102Z,1018.3
2017-09-02T23:23:20.294Z,1018.3
2017-09-02T23:24:19.239Z,1018.3
2017-09-02T23:26:17.948Z,1018.3
2017-09-02T23:27:17.020Z,1018.2
2017-09-02T23:28:16.205Z,1018.2
2017-09-02T23:29:15.394Z,1018.2
2017-09-02T23:30:14.589Z,1018.2
2017-09-02T23:31:14.025Z,1018.2
2017-09-02T23:32:13.338Z,1018.3
2017-09-02T23:33:12.275Z,1018.3
2017-09-02T23:34:11.600Z,1018.3
2017-09-02T23:36:09.806Z,1018.2
2017-09-02T23:37:09.254Z,1018.2
2017-09-02T23:39:07.823Z,1018.2
2017-09-02T23:40:07.019Z,1018.2
2017-09-02T23:41:06.212Z,1018.2
2017-09-02T23:42:05.151Z,1018.3
2017-09-02T23:43:04.472Z,1018.3
2017-09-02T23:44:03.930Z,1018.3
2017-09-02T23:45:03.000Z,1018.3
2017-09-02T23:46:02.317Z,1018.3
2017-09-02T23:47:01.390Z,1018.3
2017-09-02T23:49:00.084Z,1018.3
2017-09-02T23:49:59.025Z,1018.3
2017-09-02T23:50:29.398Z,1018.3
2017-09-02T23:51:57.278Z,1018.2
2017-09-02T23:52:56.744Z,1018.2
2017-09-02T23:53:55.676Z,1018.2
2017-09-02T23:54:55.126Z,1018.2
2017-09-02T23:55:54.313Z,1018.2
2017-09-02T23:56:53.505Z,1018.2
2017-09-02T23:58:51.828Z,1018.2
2017-09-02T23:59:51.391Z,1018.2
